Time;durP1;ratioP1;P1;durP2;ratioP2;P2;SDS_P1;SDS_P2;PMS_P1;PMS_P2;Temp;Humidity;BMP_temperature;BMP_pressure;BME280_temperature;BME280_humidity;BME280_pressure;Samples;Min_cycle;Max_cycle;Signal;HPM_P1;HPM_P2
2023/09/12 00:00:49;;;;;;;6.53;5.73;;;25.10;61.50;;;;;;5033844;28;20426;-70
2023/09/12 00:03:19;;;;;;;5.60;5.10;;;25.10;61.50;;;;;;5029731;28;20179;-68
2023/09/12 00:05:51;;;;;;;5.97;5.47;;;25.10;61.50;;;;;;5029566;28;20271;-69
2023/09/12 00:08:17;;;;;;;5.73;5.20;;;25.10;61.50;;;;;;5028499;28;20419;-69
2023/09/12 00:10:42;;;;;;;6.30;5.70;;;25.10;61.50;;;;;;5030573;28;20548;-69
2023/09/12 00:13:08;;;;;;;5.30;4.80;;;25.10;61.50;;;;;;5029650;28;20210;-69
2023/09/12 00:15:33;;;;;;;6.23;5.63;;;25.10;61.50;;;;;;5030555;28;20603;-69
2023/09/12 00:17:59;;;;;;;6.00;5.50;;;25.10;61.50;;;;;;5032508;28;20167;-68
2023/09/12 00:20:24;;;;;;;5.40;4.83;;;25.10;61.60;;;;;;5033015;28;20668;-68
2023/09/12 00:22:50;;;;;;;5.37;4.90;;;25.10;61.50;;;;;;5034214;28;20251;-69
2023/09/12 00:25:16;;;;;;;6.23;5.63;;;25.10;61.50;;;;;;5034150;28;20172;-69
2023/09/12 00:27:42;;;;;;;6.10;5.50;;;25.10;61.50;;;;;;5034348;28;20249;-69
2023/09/12 00:30:07;;;;;;;5.67;5.17;;;25.10;61.50;;;;;;5033959;28;20664;-69
2023/09/12 00:32:33;;;;;;;6.83;5.40;;;25.10;61.50;;;;;;5033923;28;20210;-68
2023/09/12 00:34:58;;;;;;;5.70;5.10;;;25.10;62.40;;;;;;5033894;28;20182;-69
2023/09/12 00:37:24;;;;;;;5.07;4.53;;;25.10;61.60;;;;;;5033886;28;20593;-68
2023/09/12 00:39:50;;;;;;;5.30;4.80;;;25.10;61.60;;;;;;5033761;28;20184;-69
2023/09/12 00:42:16;;;;;;;5.57;5.07;;;25.10;61.50;;;;;;5034105;28;20179;-68
2023/09/12 00:44:41;;;;;;;5.50;5.00;;;25.10;61.60;;;;;;5033791;28;21124;-68
2023/09/12 00:47:09;;;;;;;5.30;4.80;;;25.10;61.50;;;;;;5034022;28;20172;-69
2023/09/12 00:49:35;;;;;;;6.13;5.57;;;25.10;61.60;;;;;;5032374;28;20215;-70
2023/09/12 00:52:01;;;;;;;6.13;5.53;;;25.10;61.60;;;;;;5033570;28;20487;-68
2023/09/12 00:54:27;;;;;;;5.03;4.53;;;25.10;61.60;;;;;;5033634;28;20406;-69
2023/09/12 00:56:53;;;;;;;5.53;5.03;;;25.10;61.50;;;;;;5033497;28;20459;-69
2023/09/12 00:59:19;;;;;;;5.10;4.70;;;25.10;61.50;;;;;;5033705;28;20272;-68
2023/09/12 01:01:45;;;;;;;5.70;5.20;;;25.10;61.60;;;;;;5033722;28;20183;-69
2023/09/12 01:04:11;;;;;;;5.00;4.27;;;25.10;61.50;;;;;;5033364;28;20899;-69
2023/09/12 01:06:38;;;;;;;4.87;4.43;;;25.10;61.50;;;;;;5033385;28;20194;-68
2023/09/12 01:09:04;;;;;;;5.80;5.30;;;25.10;61.50;;;;;;5032304;28;20446;-68
2023/09/12 01:11:31;;;;;;;5.10;4.53;;;25.10;61.60;;;;;;5033457;28;20793;-69
2023/09/12 01:13:56;;;;;;;4.80;4.40;;;25.10;61.60;;;;;;5033516;28;20853;-70
2023/09/12 01:16:22;;;;;;;6.33;5.10;;;25.10;61.60;;;;;;5033176;28;20488;-69
2023/09/12 01:18:48;;;;;;;5.70;5.20;;;25.10;61.60;;;;;;5033070;28;20191;-69
2023/09/12 01:21:20;;;;;;;6.40;5.60;;;25.10;61.60;;;;;;5033060;28;20175;-70
2023/09/12 01:24:23;;;;;;;4.90;4.50;;;25.10;61.60;;;;;;5033060;28;20410;-68
2023/09/12 01:27:25;;;;;;;5.67;5.07;;;25.10;61.50;;;;;;5033014;28;20435;-68
2023/09/12 01:29:56;;;;;;;8.83;4.83;;;25.10;61.60;;;;;;5031959;28;20430;-68
2023/09/12 01:32:21;;;;;;;5.10;4.70;;;25.10;61.70;;;;;;5032822;28;21064;-69
2023/09/12 01:34:47;;;;;;;5.80;5.37;;;25.10;61.70;;;;;;5032854;28;20399;-69
2023/09/12 01:37:13;;;;;;;5.50;5.00;;;25.10;62.50;;;;;;5033103;28;20183;-68
2023/09/12 01:39:38;;;;;;;5.13;4.60;;;25.10;61.70;;;;;;5032653;28;20317;-69
2023/09/12 01:42:05;;;;;;;5.63;5.13;;;25.10;61.70;;;;;;5031480;28;20407;-69
2023/09/12 01:44:33;;;;;;;5.40;4.90;;;25.10;61.60;;;;;;5031646;28;20183;-69
2023/09/12 01:47:03;;;;;;;6.57;5.90;;;25.10;61.60;;;;;;5032553;28;20812;-70
2023/09/12 01:49:29;;;;;;;5.30;4.90;;;25.10;61.60;;;;;;5032297;28;20543;-69
2023/09/12 01:51:56;;;;;;;5.20;4.80;;;25.10;61.70;;;;;;5032412;28;20951;-68
2023/09/12 01:54:23;;;;;;;5.50;5.00;;;25.10;61.60;;;;;;5032430;28;20402;-69
2023/09/12 01:56:49;;;;;;;6.27;5.37;;;25.10;61.70;;;;;;5032385;28;20432;-69
2023/09/12 01:59:15;;;;;;;6.50;5.20;;;25.10;61.60;;;;;;5032239;28;20427;-69
2023/09/12 02:01:42;;;;;;;5.93;5.43;;;25.10;61.60;;;;;;5032249;28;20433;-69
2023/09/12 02:04:08;;;;;;;5.87;4.93;;;25.10;61.70;;;;;;5031313;28;20179;-70
2023/09/12 02:06:34;;;;;;;5.27;4.80;;;25.10;61.60;;;;;;5032215;28;20418;-69
2023/09/12 02:09:00;;;;;;;5.87;5.27;;;25.10;61.60;;;;;;5032071;28;20456;-69
2023/09/12 02:11:27;;;;;;;4.73;4.33;;;25.10;61.60;;;;;;5032025;28;20410;-70
2023/09/12 02:13:52;;;;;;;5.97;5.43;;;25.10;61.60;;;;;;5032095;28;20714;-70
2023/09/12 02:16:18;;;;;;;6.00;5.47;;;25.10;61.60;;;;;;5032105;28;20403;-68
2023/09/12 02:18:44;;;;;;;5.80;5.30;;;25.10;61.60;;;;;;5031919;28;20183;-69
2023/09/12 02:21:09;;;;;;;5.40;4.90;;;25.10;61.60;;;;;;5031966;28;20246;-69
2023/09/12 02:23:35;;;;;;;6.17;5.57;;;25.10;61.60;;;;;;5031873;28;20175;-68
2023/09/12 02:26:01;;;;;;;6.07;5.47;;;25.10;61.60;;;;;;5031867;28;20175;-68
2023/09/12 02:28:26;;;;;;;5.37;4.97;;;25.10;61.60;;;;;;5031780;28;20218;-69
2023/09/12 02:30:52;;;;;;;5.80;5.30;;;25.10;61.60;;;;;;5031832;28;20233;-68
2023/09/12 02:33:17;;;;;;;5.07;4.67;;;25.10;61.60;;;;;;5030456;28;20227;-68
2023/09/12 02:35:43;;;;;;;4.93;4.53;;;25.10;61.60;;;;;;5031683;28;20700;-68
2023/09/12 02:38:09;;;;;;;5.30;4.80;;;25.10;61.60;;;;;;5014090;28;20214;-69
2023/09/12 02:40:34;;;;;;;7.60;4.80;;;25.10;61.60;;;;;;5031490;28;20517;-69
2023/09/12 02:43:00;;;;;;;5.20;4.63;;;25.10;61.60;;;;;;5031605;28;20265;-69
2023/09/12 02:45:26;;;;;;;4.70;4.30;;;25.10;61.60;;;;;;5031517;28;20174;-70
2023/09/12 02:47:51;;;;;;;5.30;4.80;;;25.10;61.60;;;;;;5031338;28;20175;-69
2023/09/12 02:50:17;;;;;;;6.20;5.70;;;25.10;61.60;;;;;;5031485;28;20204;-69
2023/09/12 02:52:42;;;;;;;5.13;4.73;;;25.10;61.60;;;;;;5031358;28;20192;-69
2023/09/12 02:55:09;;;;;;;5.13;4.63;;;25.10;61.60;;;;;;5031684;28;20186;-69
2023/09/12 02:57:35;;;;;;;5.20;4.70;;;25.10;61.60;;;;;;5031357;28;20164;-69
2023/09/12 03:00:00;;;;;;;5.47;4.50;;;25.10;61.60;;;;;;5031259;28;20441;-68
2023/09/12 03:02:29;;;;;;;5.17;4.67;;;25.10;61.60;;;;;;5031296;28;20172;-70
2023/09/12 03:04:54;;;;;;;5.20;4.70;;;25.10;61.60;;;;;;5031249;28;20203;-68
2023/09/12 03:07:20;;;;;;;5.17;4.73;;;25.10;61.60;;;;;;5031211;28;20924;-70
2023/09/12 03:09:48;;;;;;;5.20;4.80;;;25.10;61.60;;;;;;5031413;28;20210;-69
2023/09/12 03:12:14;;;;;;;4.83;4.43;;;25.10;61.60;;;;;;5031070;28;20270;-70
2023/09/12 03:14:40;;;;;;;5.50;5.00;;;25.10;61.60;;;;;;5031392;28;20497;-69
2023/09/12 03:17:05;;;;;;;5.63;5.13;;;25.10;61.70;;;;;;5029945;28;20172;-69
2023/09/12 03:19:31;;;;;;;5.57;5.07;;;25.10;61.60;;;;;;5031053;28;20688;-68
2023/09/12 03:21:57;;;;;;;5.20;4.80;;;25.10;61.60;;;;;;5031091;28;20203;-69
2023/09/12 03:24:24;;;;;;;5.20;4.70;;;25.10;61.60;;;;;;5031032;28;20175;-69
2023/09/12 03:26:50;;;;;;;5.20;4.70;;;25.10;61.60;;;;;;5029947;28;20204;-69
2023/09/12 03:29:16;;;;;;;4.90;4.50;;;25.10;61.60;;;;;;5029640;28;20472;-69
2023/09/12 03:31:42;;;;;;;5.50;5.00;;;25.10;61.60;;;;;;5031119;28;20442;-68
2023/09/12 03:34:07;;;;;;;5.10;4.67;;;25.10;61.60;;;;;;5030930;28;20233;-69
2023/09/12 03:36:33;;;;;;;5.37;4.87;;;25.10;61.60;;;;;;5030919;28;20254;-69
2023/09/12 03:38:59;;;;;;;5.60;5.20;;;25.10;61.60;;;;;;5030869;28;20203;-68
2023/09/12 03:41:25;;;;;;;4.87;4.47;;;25.10;61.60;;;;;;5030935;28;20176;-68
2023/09/12 03:43:55;;;;;;;6.50;5.13;;;25.10;61.60;;;;;;5030842;28;20225;-68
2023/09/12 03:46:21;;;;;;;4.73;4.33;;;25.10;61.60;;;;;;5029704;28;20420;-69
2023/09/12 03:48:47;;;;;;;4.10;3.80;;;25.10;61.60;;;;;;5030648;28;20504;-69
2023/09/12 03:51:13;;;;;;;5.10;4.63;;;25.10;61.60;;;;;;5030862;28;20446;-69
2023/09/12 03:53:38;;;;;;;5.07;4.60;;;25.10;61.60;;;;;;5034048;28;20946;-67
2023/09/12 03:56:04;;;;;;;5.10;4.70;;;25.10;61.60;;;;;;5033198;28;20171;-68
2023/09/12 03:58:30;;;;;;;4.60;4.30;;;25.10;61.60;;;;;;5034581;28;20708;-69
2023/09/12 04:00:56;;;;;;;6.20;5.70;;;25.10;61.60;;;;;;5033833;28;20226;-68
2023/09/12 04:03:22;;;;;;;5.23;4.77;;;25.10;61.60;;;;;;5034251;28;20190;-69
2023/09/12 04:05:47;;;;;;;4.80;4.40;;;25.10;61.60;;;;;;5032967;28;20186;-70
2023/09/12 04:08:13;;;;;;;5.10;4.67;;;25.10;61.60;;;;;;5033113;28;20419;-69
2023/09/12 04:10:39;;;;;;;5.00;4.50;;;25.10;61.60;;;;;;5034361;28;20321;-68
2023/09/12 04:13:04;;;;;;;5.50;5.00;;;25.10;61.60;;;;;;5033366;28;20230;-69
2023/09/12 04:15:30;;;;;;;4.83;4.43;;;25.10;61.60;;;;;;5033113;28;20217;-69
2023/09/12 04:17:55;;;;;;;5.17;4.70;;;25.10;61.60;;;;;;5034685;28;20194;-70
2023/09/12 04:20:21;;;;;;;4.63;4.23;;;25.10;61.60;;;;;;5034313;28;20219;-69
2023/09/12 04:22:47;;;;;;;5.03;4.63;;;25.10;61.60;;;;;;5034301;28;20171;-70
2023/09/12 04:25:12;;;;;;;4.53;4.13;;;25.00;61.60;;;;;;5034304;28;20222;-68
2023/09/12 04:27:38;;;;;;;6.27;5.77;;;25.10;61.60;;;;;;5034463;28;20266;-70
2023/09/12 04:30:04;;;;;;;4.90;4.50;;;25.10;61.60;;;;;;5034450;28;20699;-69
2023/09/12 04:32:30;;;;;;;5.07;4.60;;;25.10;61.60;;;;;;5034001;28;20202;-68
2023/09/12 04:34:55;;;;;;;5.23;4.70;;;25.10;61.60;;;;;;5034109;28;20411;-69
2023/09/12 04:37:21;;;;;;;6.50;4.80;;;25.10;61.60;;;;;;5034142;28;20167;-68
2023/09/12 04:39:48;;;;;;;4.87;4.47;;;25.10;61.60;;;;;;5033962;28;20238;-70
2023/09/12 04:42:14;;;;;;;4.63;4.23;;;25.10;61.60;;;;;;5033694;28;20591;-70
2023/09/12 04:44:40;;;;;;;5.30;4.87;;;25.10;61.60;;;;;;5033970;28;20411;-68
2023/09/12 04:47:06;;;;;;;4.70;4.30;;;25.10;61.60;;;;;;5033936;28;20688;-69
2023/09/12 04:49:32;;;;;;;4.87;4.47;;;25.10;61.60;;;;;;5033685;28;20486;-69
2023/09/12 04:51:57;;;;;;;5.37;4.30;;;25.10;61.60;;;;;;5033994;28;20562;-69
2023/09/12 04:54:23;;;;;;;4.57;4.13;;;25.10;61.60;;;;;;5033775;28;20171;-68
2023/09/12 04:56:48;;;;;;;5.37;4.53;;;25.10;61.60;;;;;;5033759;28;20612;-69
2023/09/12 04:59:14;;;;;;;5.10;4.60;;;25.00;61.50;;;;;;5033556;28;20183;-69
2023/09/12 05:01:40;;;;;;;6.07;4.83;;;25.10;61.60;;;;;;5033667;28;20168;-69
2023/09/12 05:04:06;;;;;;;5.10;4.53;;;25.10;61.60;;;;;;5023366;28;20207;-69
2023/09/12 05:06:31;;;;;;;5.87;5.37;;;25.10;61.60;;;;;;5026838;28;20715;-68
2023/09/12 05:08:57;;;;;;;5.00;4.50;;;25.10;61.60;;;;;;5030320;28;20286;-68
2023/09/12 05:11:26;;;;;;;4.93;4.50;;;25.00;61.50;;;;;;5021925;28;20203;-69
2023/09/12 05:13:51;;;;;;;4.50;4.17;;;25.00;61.60;;;;;;5022097;28;20202;-70
2023/09/12 05:16:17;;;;;;;4.67;4.27;;;25.10;61.60;;;;;;5020376;28;20487;-69
2023/09/12 05:18:43;;;;;;;4.80;4.40;;;25.00;61.60;;;;;;5020601;28;20191;-69
2023/09/12 05:21:09;;;;;;;4.80;4.40;;;25.00;61.60;;;;;;5023683;28;20172;-69
2023/09/12 05:23:34;;;;;;;5.90;5.30;;;25.10;61.60;;;;;;5016056;28;20415;-68
2023/09/12 05:26:00;;;;;;;5.27;4.80;;;25.10;61.60;;;;;;5013451;28;20180;-68
2023/09/12 05:28:26;;;;;;;6.17;4.53;;;25.00;61.50;;;;;;5013495;28;20283;-69
2023/09/12 05:30:52;;;;;;;5.10;4.53;;;25.00;61.60;;;;;;5013410;28;20181;-68
2023/09/12 05:33:18;;;;;;;5.00;4.60;;;25.00;61.50;;;;;;5012003;28;20228;-67
2023/09/12 05:35:46;;;;;;;4.53;4.13;;;25.00;61.60;;;;;;5013226;28;20411;-68
2023/09/12 05:38:12;;;;;;;4.70;4.03;;;25.10;61.60;;;;;;5011832;28;20172;-69
2023/09/12 05:40:38;;;;;;;6.47;5.13;;;25.00;61.60;;;;;;5013134;28;20880;-70
2023/09/12 05:43:04;;;;;;;4.60;4.20;;;25.00;61.60;;;;;;5013189;28;20646;-69
2023/09/12 05:45:30;;;;;;;4.90;4.50;;;25.00;61.50;;;;;;5011765;28;20419;-69
2023/09/12 05:47:56;;;;;;;4.50;4.10;;;25.10;61.60;;;;;;5012904;28;20173;-69
2023/09/12 05:50:23;;;;;;;4.43;4.03;;;25.00;61.50;;;;;;5012869;28;20434;-69
2023/09/12 05:52:48;;;;;;;4.40;4.00;;;25.00;61.60;;;;;;5012822;28;20195;-68
2023/09/12 05:55:14;;;;;;;5.33;4.93;;;25.10;61.60;;;;;;5012873;28;20777;-70
2023/09/12 05:57:40;;;;;;;4.70;4.30;;;25.00;61.50;;;;;;5012838;28;20267;-68
2023/09/12 06:00:09;;;;;;;4.77;4.37;;;25.00;61.50;;;;;;5012717;28;20192;-68
2023/09/12 06:02:35;;;;;;;5.50;4.83;;;25.00;61.50;;;;;;5012751;28;20168;-69
2023/09/12 06:05:01;;;;;;;4.47;4.07;;;25.00;61.50;;;;;;5013083;28;20438;-69
2023/09/12 06:07:27;;;;;;;4.93;4.53;;;25.00;61.50;;;;;;5012717;28;20223;-69
2023/09/12 06:09:52;;;;;;;5.57;5.10;;;25.10;62.30;;;;;;5012696;28;20228;-68
2023/09/12 06:12:18;;;;;;;5.17;4.77;;;25.00;61.30;;;;;;5012591;28;20203;-69
2023/09/12 06:14:43;;;;;;;4.90;4.50;;;25.00;61.30;;;;;;5012195;28;20231;-68
2023/09/12 06:17:09;;;;;;;5.37;4.87;;;25.00;61.30;;;;;;5012603;28;20272;-70
2023/09/12 06:19:35;;;;;;;5.57;5.03;;;25.00;61.40;;;;;;5012420;28;20695;-70
2023/09/12 06:22:00;;;;;;;5.20;4.70;;;25.00;61.40;;;;;;5012221;28;20279;-71
2023/09/12 06:24:26;;;;;;;4.93;4.50;;;25.00;61.40;;;;;;5031837;28;20180;-70
2023/09/12 06:26:52;;;;;;;5.10;4.60;;;25.00;61.40;;;;;;5030746;28;20172;-69
2023/09/12 06:29:17;;;;;;;5.37;4.80;;;25.10;61.40;;;;;;5030079;28;20195;-69
2023/09/12 06:31:43;;;;;;;5.87;5.23;;;25.10;61.50;;;;;;5030222;28;20187;-70
2023/09/12 06:34:10;;;;;;;5.43;4.87;;;25.10;61.50;;;;;;5030119;28;20174;-70
2023/09/12 06:36:36;;;;;;;4.63;4.23;;;25.00;61.40;;;;;;5031018;28;20222;-70
2023/09/12 06:39:04;;;;;;;5.37;4.90;;;25.00;61.40;;;;;;5031944;28;20426;-69
2023/09/12 06:41:30;;;;;;;5.27;4.80;;;25.00;61.30;;;;;;5031906;28;20403;-70
2023/09/12 06:43:58;;;;;;;5.17;4.67;;;25.00;61.40;;;;;;5032057;28;20483;-70
2023/09/12 06:46:24;;;;;;;5.70;5.20;;;25.00;61.30;;;;;;5031632;28;20172;-68
2023/09/12 06:48:50;;;;;;;6.07;5.57;;;25.10;61.40;;;;;;5030485;28;20561;-69
2023/09/12 06:51:16;;;;;;;6.03;5.40;;;25.00;61.30;;;;;;5030816;28;20427;-69
2023/09/12 06:53:43;;;;;;;5.60;5.10;;;25.00;61.30;;;;;;5030173;28;20573;-68
2023/09/12 06:56:09;;;;;;;5.27;4.77;;;25.00;61.30;;;;;;5030247;28;20497;-69
2023/09/12 06:58:35;;;;;;;5.97;5.47;;;25.10;61.30;;;;;;5031673;28;20986;-68
2023/09/12 07:01:07;;;;;;;5.87;5.37;;;25.10;61.30;;;;;;5031694;28;20167;-69
2023/09/12 07:03:34;;;;;;;6.10;5.50;;;25.10;61.30;;;;;;5031720;28;20649;-68
2023/09/12 07:06:00;;;;;;;6.20;5.67;;;25.10;61.30;;;;;;5031653;28;20418;-70
2023/09/12 07:08:26;;;;;;;5.30;4.80;;;25.10;61.30;;;;;;5031596;28;20629;-68
2023/09/12 07:10:54;;;;;;;6.10;5.50;;;25.10;61.40;;;;;;5031837;28;20186;-69
2023/09/12 07:13:21;;;;;;;5.60;5.10;;;25.10;61.30;;;;;;5030354;28;20469;-69
2023/09/12 07:15:47;;;;;;;6.10;5.50;;;25.10;61.40;;;;;;5031736;28;20805;-69
2023/09/12 07:18:14;;;;;;;7.10;4.90;;;25.10;61.30;;;;;;5031317;28;20402;-69
2023/09/12 07:20:40;;;;;;;5.47;4.97;;;25.10;61.30;;;;;;5031600;28;20547;-69
2023/09/12 07:23:06;;;;;;;6.70;5.43;;;25.10;61.30;;;;;;5031890;28;20410;-69
2023/09/12 07:25:41;;;;;;;5.43;4.93;;;25.10;61.30;;;;;;5031335;28;20182;-68
2023/09/12 07:28:07;;;;;;;5.73;5.13;;;25.10;61.30;;;;;;5030642;28;20257;-68
2023/09/12 07:30:33;;;;;;;5.93;5.43;;;25.10;61.30;;;;;;5031605;28;20904;-70
2023/09/12 07:32:58;;;;;;;5.47;5.00;;;25.10;61.30;;;;;;5031314;28;20463;-69
2023/09/12 07:35:24;;;;;;;5.67;5.17;;;25.10;61.30;;;;;;5031511;28;20314;-69
2023/09/12 07:37:50;;;;;;;5.43;5.00;;;25.10;61.30;;;;;;5031316;28;20176;-69
2023/09/12 07:40:16;;;;;;;6.13;5.70;;;25.10;61.30;;;;;;5031201;28;20206;-70
2023/09/12 07:42:41;;;;;;;5.53;5.10;;;25.10;61.30;;;;;;5031250;28;20415;-69
2023/09/12 07:45:08;;;;;;;5.70;5.20;;;25.10;61.30;;;;;;5031198;28;20196;-69
2023/09/12 07:47:33;;;;;;;5.70;5.10;;;25.10;61.30;;;;;;5031565;28;20183;-69
2023/09/12 07:50:00;;;;;;;5.77;5.20;;;25.10;61.30;;;;;;5031094;28;20833;-69
2023/09/12 07:52:26;;;;;;;5.57;5.07;;;25.10;61.30;;;;;;5031130;28;20225;-70
2023/09/12 07:54:56;;;;;;;6.40;5.80;;;25.10;61.30;;;;;;5031164;28;20493;-69
2023/09/12 07:57:22;;;;;;;5.30;4.80;;;25.10;61.30;;;;;;5031133;28;20438;-70
2023/09/12 07:59:48;;;;;;;6.33;5.47;;;25.10;61.30;;;;;;5031293;28;20436;-70
2023/09/12 08:02:14;;;;;;;5.83;5.17;;;25.10;61.30;;;;;;5031321;28;20414;-70
2023/09/12 08:04:39;;;;;;;7.03;6.33;;;25.10;61.30;;;;;;5031074;28;20179;-69
2023/09/12 08:07:05;;;;;;;5.70;5.20;;;25.10;61.20;;;;;;5031062;28;20259;-70
2023/09/12 08:09:53;;;;;;;6.10;4.97;;;25.10;61.30;;;;;;5031019;28;20199;-69
2023/09/12 08:12:20;;;;;;;6.13;4.90;;;25.10;61.30;;;;;;5030962;28;20202;-69
2023/09/12 08:14:46;;;;;;;5.23;4.73;;;25.10;61.30;;;;;;5031120;28;20927;-70
2023/09/12 08:17:12;;;;;;;5.87;5.03;;;25.10;61.30;;;;;;5031064;28;20398;-69
2023/09/12 08:19:39;;;;;;;5.80;5.20;;;25.10;61.30;;;;;;5030552;28;20203;-71
2023/09/12 08:22:05;;;;;;;5.30;4.80;;;25.10;61.30;;;;;;5030847;28;20421;-69
2023/09/12 08:24:31;;;;;;;6.27;5.63;;;25.10;61.30;;;;;;5029766;28;20422;-69
2023/09/12 08:26:56;;;;;;;6.20;5.60;;;25.10;61.30;;;;;;5030854;28;20476;-70
2023/09/12 08:29:22;;;;;;;5.93;5.27;;;25.10;61.30;;;;;;5030782;28;20672;-67
2023/09/12 08:31:48;;;;;;;4.60;4.20;;;25.10;61.30;;;;;;5030817;28;20188;-69
2023/09/12 08:34:14;;;;;;;5.33;4.93;;;25.10;61.20;;;;;;5030896;28;20206;-69
2023/09/12 08:36:40;;;;;;;6.13;5.57;;;25.10;61.30;;;;;;5030949;28;20168;-69
2023/09/12 08:39:08;;;;;;;6.10;5.50;;;25.10;61.30;;;;;;5032809;28;20444;-70
2023/09/12 08:41:33;;;;;;;6.57;5.70;;;25.10;61.20;;;;;;5034383;28;20180;-69
2023/09/12 08:44:01;;;;;;;5.70;5.07;;;25.10;61.20;;;;;;5034223;28;20418;-71
2023/09/12 08:46:27;;;;;;;6.77;4.90;;;25.10;61.20;;;;;;5034161;28;20647;-68
2023/09/12 08:48:55;;;;;;;6.93;4.37;;;25.10;61.20;;;;;;5033991;28;20581;-68
2023/09/12 08:51:23;;;;;;;6.20;5.20;;;25.10;61.30;;;;;;5032922;28;20422;-69
2023/09/12 08:53:49;;;;;;;5.90;5.30;;;25.10;61.20;;;;;;5034078;28;20523;-68
2023/09/12 08:56:16;;;;;;;6.73;5.30;;;25.20;61.30;;;;;;5034122;28;20760;-69
2023/09/12 08:58:43;;;;;;;6.60;6.00;;;25.10;61.20;;;;;;5033849;28;20438;-69
2023/09/12 09:01:13;;;;;;;6.17;5.57;;;25.10;61.20;;;;;;5033969;28;20414;-70
2023/09/12 09:03:41;;;;;;;5.33;4.83;;;25.10;61.20;;;;;;5034010;28;20395;-70
2023/09/12 09:06:08;;;;;;;5.90;5.40;;;25.10;61.10;;;;;;5033929;28;20415;-70
2023/09/12 09:08:34;;;;;;;5.77;5.30;;;25.20;61.20;;;;;;5033801;28;20430;-70
2023/09/12 09:11:03;;;;;;;9.07;5.30;;;25.10;61.20;;;;;;5034077;28;20421;-68
2023/09/12 09:13:29;;;;;;;5.93;5.33;;;25.10;61.10;;;;;;5033689;28;20490;-69
2023/09/12 09:16:12;;;;;;;5.27;4.83;;;25.10;61.10;;;;;;5033722;28;20407;-69
2023/09/12 09:19:01;;;;;;;5.20;4.80;;;25.10;61.10;;;;;;5033622;28;20430;-69
2023/09/12 09:21:31;;;;;;;5.40;5.00;;;25.20;61.20;;;;;;5033818;28;20797;-68
2023/09/12 09:24:03;;;;;;;5.33;4.73;;;25.10;61.20;;;;;;5032714;28;20430;-70
2023/09/12 09:26:41;;;;;;;5.90;5.40;;;25.10;61.20;;;;;;5032758;28;20422;-70
2023/09/12 09:29:13;;;;;;;7.30;6.60;;;25.10;61.20;;;;;;5024917;28;20444;-69
2023/09/12 09:31:41;;;;;;;6.00;5.20;;;25.10;61.20;;;;;;5023609;28;20413;-71
2023/09/12 09:34:12;;;;;;;6.27;5.67;;;25.10;61.20;;;;;;5021199;28;20959;-70
2023/09/12 09:36:42;;;;;;;7.10;5.70;;;25.10;61.20;;;;;;5027173;28;20918;-70
2023/09/12 09:39:08;;;;;;;7.13;5.90;;;25.10;61.20;;;;;;5031332;28;20500;-70
2023/09/12 09:41:34;;;;;;;6.13;5.53;;;25.10;61.30;;;;;;5032866;28;20498;-69
2023/09/12 09:46:36;;;;;;;7.73;5.83;;;25.20;61.40;;;;;;5861292;23;20731;-68
2023/09/12 09:49:02;;;;;;;5.93;5.43;;;25.20;61.50;;;;;;5012539;28;20419;-69
2023/09/12 09:51:30;;;;;;;6.30;5.07;;;25.20;61.40;;;;;;5012596;28;20411;-69
2023/09/12 09:53:58;;;;;;;6.20;5.23;;;25.20;61.40;;;;;;5012452;28;20204;-69
2023/09/12 09:56:25;;;;;;;6.10;5.50;;;25.20;61.40;;;;;;4994839;28;20868;-69
2023/09/12 09:58:53;;;;;;;6.40;5.80;;;25.20;61.40;;;;;;5012462;28;20471;-70
2023/09/12 10:01:20;;;;;;;6.10;5.60;;;25.20;61.50;;;;;;4995046;28;20894;-69
2023/09/12 10:03:47;;;;;;;5.90;5.40;;;25.20;61.50;;;;;;5012445;28;20412;-69
2023/09/12 10:06:18;;;;;;;6.30;5.70;;;25.20;61.40;;;;;;5012353;28;20573;-70
2023/09/12 10:08:50;;;;;;;6.93;5.63;;;25.20;61.40;;;;;;5012337;28;20402;-70
2023/09/12 10:11:17;;;;;;;5.70;5.10;;;25.20;61.50;;;;;;5012283;28;20410;-69
2023/09/12 10:14:03;;;;;;;6.60;5.20;;;25.20;61.40;;;;;;5012146;28;20454;-69
2023/09/12 10:16:51;;;;;;;5.27;4.80;;;25.20;61.40;;;;;;5012107;28;20439;-69
2023/09/12 10:19:35;;;;;;;6.63;5.17;;;25.20;61.40;;;;;;5012104;28;20396;-70
2023/09/12 10:22:24;;;;;;;6.47;5.87;;;25.20;61.50;;;;;;5012371;28;20873;-69
2023/09/12 10:24:50;;;;;;;6.80;5.90;;;25.20;61.50;;;;;;5012001;28;20438;-68
2023/09/12 10:27:18;;;;;;;6.20;5.70;;;25.20;61.50;;;;;;5011937;28;20435;-69
2023/09/12 10:29:47;;;;;;;6.93;6.33;;;25.20;61.50;;;;;;5011908;28;20411;-69
2023/09/12 10:32:14;;;;;;;6.60;5.90;;;25.20;61.50;;;;;;5012169;28;20509;-67
2023/09/12 10:34:44;;;;;;;7.97;5.07;;;25.20;61.50;;;;;;5011806;28;20416;-69
2023/09/12 10:37:12;;;;;;;6.70;6.00;;;25.20;61.50;;;;;;5011991;28;20440;-69
2023/09/12 10:39:40;;;;;;;6.23;4.97;;;25.20;61.50;;;;;;5011780;28;20426;-70
2023/09/12 10:42:06;;;;;;;6.87;6.10;;;25.20;61.50;;;;;;4994009;28;20936;-70
2023/09/12 10:44:33;;;;;;;7.47;6.67;;;25.20;61.50;;;;;;5011381;28;20419;-70
2023/09/12 10:46:59;;;;;;;7.23;6.37;;;25.20;61.40;;;;;;5010665;28;20703;-70
2023/09/12 10:49:25;;;;;;;6.93;6.27;;;25.20;61.50;;;;;;5005517;28;20424;-69
2023/09/12 10:51:51;;;;;;;7.83;6.43;;;25.20;61.50;;;;;;5010984;28;20466;-70
2023/09/12 10:54:25;;;;;;;7.00;6.30;;;25.20;61.40;;;;;;5010841;28;20194;-69
2023/09/12 10:57:13;;;;;;;6.97;6.33;;;25.20;61.40;;;;;;5011074;28;20419;-69
2023/09/12 11:00:13;;;;;;;7.77;6.27;;;25.30;61.50;;;;;;5011332;28;20499;-69
2023/09/12 11:02:40;;;;;;;6.73;6.13;;;25.20;61.40;;;;;;5011003;28;20399;-71
2023/09/12 11:05:27;;;;;;;8.30;6.43;;;25.20;61.50;;;;;;5011234;28;20415;-70
2023/09/12 11:07:59;;;;;;;10.83;6.07;;;25.20;61.50;;;;;;5011196;28;20443;-70
2023/09/12 11:10:26;;;;;;;6.27;5.67;;;25.20;61.50;;;;;;5011231;28;20413;-70
2023/09/12 11:12:54;;;;;;;7.60;6.90;;;25.30;61.60;;;;;;5011102;28;20541;-69
2023/09/12 11:15:22;;;;;;;8.30;6.60;;;25.20;61.50;;;;;;5011020;28;20422;-70
2023/09/12 11:17:49;;;;;;;8.63;7.00;;;25.30;61.50;;;;;;5011802;28;20447;-70
2023/09/12 11:20:16;;;;;;;7.10;6.40;;;25.30;61.50;;;;;;5011606;28;20414;-70
2023/09/12 11:22:43;;;;;;;7.77;6.63;;;25.30;61.50;;;;;;5011706;28;20427;-70
2023/09/12 11:25:25;;;;;;;7.83;6.80;;;25.30;61.50;;;;;;5011366;28;20411;-69
2023/09/12 11:27:51;;;;;;;8.30;7.30;;;25.30;61.50;;;;;;5011525;28;20431;-69
2023/09/12 11:30:17;;;;;;;13.20;7.80;;;25.30;61.50;;;;;;5011491;28;20421;-70
2023/09/12 11:32:47;;;;;;;7.47;6.77;;;25.30;61.50;;;;;;5011456;28;20203;-69
2023/09/12 11:35:14;;;;;;;10.07;7.37;;;25.30;61.50;;;;;;4993591;28;20877;-70
2023/09/12 11:37:47;;;;;;;7.63;6.80;;;25.30;61.50;;;;;;5010837;28;20439;-70
2023/09/12 11:40:13;;;;;;;13.17;8.20;;;25.30;61.50;;;;;;5009545;28;20411;-70
2023/09/12 11:42:42;;;;;;;8.93;6.80;;;25.30;61.50;;;;;;5010849;28;20962;-69
2023/09/12 11:45:11;;;;;;;8.67;6.60;;;25.30;61.50;;;;;;5010889;28;20231;-70
2023/09/12 11:47:40;;;;;;;9.07;7.63;;;25.30;61.50;;;;;;5010748;28;20463;-69
2023/09/12 11:50:06;;;;;;;8.63;7.03;;;25.30;61.50;;;;;;5010681;28;20416;-69
2023/09/12 11:52:37;;;;;;;9.27;7.67;;;25.30;61.50;;;;;;5010856;28;20524;-70
2023/09/12 11:55:03;;;;;;;9.10;8.13;;;25.30;61.50;;;;;;5010767;28;20685;-70
2023/09/12 11:57:29;;;;;;;9.50;8.57;;;25.30;61.50;;;;;;5010917;28;20427;-70
2023/09/12 11:59:56;;;;;;;9.57;8.43;;;25.30;61.50;;;;;;5010723;28;20177;-70
2023/09/12 12:02:23;;;;;;;14.43;10.03;;;25.30;61.50;;;;;;5010980;28;20420;-69
2023/09/12 12:04:50;;;;;;;18.40;10.27;;;25.30;61.50;;;;;;5011090;28;20462;-69
2023/09/12 12:07:16;;;;;;;19.10;13.10;;;25.30;61.50;;;;;;5010601;28;20442;-70
2023/09/12 12:09:42;;;;;;;22.47;13.20;;;25.30;61.50;;;;;;5010668;28;20929;-70
2023/09/12 12:12:14;;;;;;;22.03;14.67;;;25.30;61.60;;;;;;5010466;28;20236;-70
2023/09/12 12:14:41;;;;;;;25.63;15.37;;;25.30;61.60;;;;;;5014094;28;20427;-69
2023/09/12 12:17:11;;;;;;;29.63;20.20;;;25.30;61.70;;;;;;5014219;28;21339;-70
2023/09/12 12:19:38;;;;;;;29.37;22.47;;;25.30;61.80;;;;;;5014178;28;20415;-70
2023/09/12 12:22:09;;;;;;;39.40;21.93;;;25.30;62.60;;;;;;5011141;28;20418;-70
2023/09/12 12:24:44;;;;;;;30.73;23.10;;;25.30;61.80;;;;;;4994263;28;20917;-70
2023/09/12 12:27:11;;;;;;;30.70;22.43;;;25.30;61.80;;;;;;5014563;28;20477;-69
2023/09/12 12:29:39;;;;;;;28.10;22.60;;;25.30;61.80;;;;;;5011770;28;20513;-70
2023/09/12 12:32:05;;;;;;;32.27;22.67;;;25.40;61.90;;;;;;5013996;28;20465;-69
2023/09/12 12:34:31;;;;;;;28.20;21.40;;;25.30;61.90;;;;;;5013158;28;20476;-70
2023/09/12 12:36:57;;;;;;;27.10;20.17;;;25.40;62.00;;;;;;5013627;28;20442;-70
2023/09/12 12:39:23;;;;;;;30.13;21.07;;;25.40;61.90;;;;;;5013901;28;20415;-68
2023/09/12 12:41:55;;;;;;;27.63;19.80;;;25.40;62.00;;;;;;5013873;28;20411;-70
2023/09/12 12:44:21;;;;;;;23.90;17.47;;;25.40;62.00;;;;;;5013944;28;20409;-69
2023/09/12 12:46:51;;;;;;;25.10;19.80;;;25.40;62.00;;;;;;5013782;28;20534;-70
2023/09/12 12:49:18;;;;;;;26.27;18.27;;;25.40;62.10;;;;;;5013927;28;20403;-68